Time;durP1;ratioP1;P1;durP2;ratioP2;P2;SDS_P1;SDS_P2;PMS_P1;PMS_P2;Temp;Humidity;BMP_temperature;BMP_pressure;BME280_temperature;BME280_humidity;BME280_pressure;Samples;Min_cycle;Max_cycle;Signal;HPM_P1;HPM_P2
2021/12/22 00:01:04;;;;;;;15.13;7.10;;;;;;;-10.09;66.32;101039.06;1783642;80;20987;-74
2021/12/22 00:03:31;;;;;;;20.62;9.35;;;;;;;-10.11;66.55;101038.15;1783456;80;20944;-76
2021/12/22 00:05:58;;;;;;;18.15;8.23;;;;;;;-10.12;66.69;101043.16;1783612;80;20873;-75
2021/12/22 00:08:26;;;;;;;13.35;6.37;;;;;;;-10.18;66.81;101046.39;1783467;80;21972;-75
2021/12/22 00:10:53;;;;;;;20.62;8.13;;;;;;;-10.21;67.05;101052.20;1783554;80;20971;-76
2021/12/22 00:13:20;;;;;;;17.10;7.80;;;;;;;-10.23;67.24;101052.97;1783674;80;20928;-76
2021/12/22 00:15:47;;;;;;;12.13;6.78;;;;;;;-10.25;67.62;101064.34;1783689;80;20987;-76
2021/12/22 00:18:14;;;;;;;10.05;5.58;;;;;;;-10.17;67.87;101060.77;1783697;80;20988;-77
2021/12/22 00:20:40;;;;;;;10.35;4.90;;;;;;;-10.11;67.90;101058.44;1783522;80;21100;-77
2021/12/22 00:23:07;;;;;;;13.98;6.40;;;;;;;-10.08;67.82;101055.98;1783779;80;20865;-76
2021/12/22 00:25:35;;;;;;;11.75;4.97;;;;;;;-10.06;67.98;101052.23;1783504;80;20916;-77
2021/12/22 00:28:03;;;;;;;9.48;4.85;;;;;;;-9.99;68.20;101049.06;1783617;80;20971;-77
2021/12/22 00:30:30;;;;;;;4.08;3.37;;;;;;;-9.94;68.02;101048.78;1783639;80;21003;-76
2021/12/22 00:33:04;;;;;;;7.80;3.77;;;;;;;-9.88;68.16;101051.92;1783867;80;21123;-77
2021/12/22 00:35:29;;;;;;;5.65;3.50;;;;;;;-9.77;68.21;101054.79;1782526;80;20888;-77
2021/12/22 00:37:56;;;;;;;5.50;3.45;;;;;;;-9.68;68.14;101053.78;1783686;80;20856;-76
2021/12/22 00:40:23;;;;;;;11.10;4.65;;;;;;;-9.60;67.91;101051.92;1783655;80;20995;-76
2021/12/22 00:42:50;;;;;;;5.00;3.85;;;;;;;-9.52;67.65;101047.47;1784445;80;20920;-75
2021/12/22 00:45:23;;;;;;;6.60;3.45;;;;;;;-9.51;67.34;101052.59;1784956;80;21132;-75
2021/12/22 00:47:46;;;;;;;9.93;4.33;;;;;;;-9.52;67.05;101051.27;1783888;80;20876;-75
2021/12/22 00:50:13;;;;;;;7.25;3.42;;;;;;;-9.53;67.11;101051.69;1784452;80;20951;-75
2021/12/22 00:52:40;;;;;;;6.10;4.78;;;;;;;-9.52;67.05;101056.35;1785039;80;20947;-75
2021/12/22 00:55:08;;;;;;;6.28;3.30;;;;;;;-9.53;66.99;101051.69;1785826;80;20849;-75
2021/12/22 00:57:38;;;;;;;9.58;4.25;;;;;;;-9.57;66.91;101054.10;1786508;80;21487;-76
2021/12/22 01:00:07;;;;;;;9.85;4.60;;;;;;;-9.67;66.88;101058.91;1786303;80;20980;-75
2021/12/22 01:02:36;;;;;;;8.23;3.70;;;;;;;-9.72;67.02;101064.23;1785993;80;20900;-75
2021/12/22 01:05:04;;;;;;;7.50;3.92;;;;;;;-9.71;67.24;101067.25;1785036;80;21408;-75
2021/12/22 01:07:32;;;;;;;5.72;3.95;;;;;;;-9.69;67.15;101069.42;1784351;80;20983;-73
2021/12/22 01:09:59;;;;;;;4.95;3.02;;;;;;;-9.66;67.11;101064.84;1784527;80;21291;-76
2021/12/22 01:12:26;;;;;;;8.35;3.80;;;;;;;-9.61;67.17;101073.03;1783718;80;20900;-74
2021/12/22 01:14:53;;;;;;;4.53;3.45;;;;;;;-9.60;66.94;101067.16;1784625;80;20923;-76
2021/12/22 01:17:20;;;;;;;7.17;4.12;;;;;;;-9.61;66.79;101078.11;1786787;80;20944;-74
2021/12/22 01:19:59;;;;;;;5.78;3.75;;;;;;;-9.66;66.87;101074.58;1787169;79;20817;-75
2021/12/22 01:22:34;;;;;;;9.05;5.25;;;;;;;-9.65;66.83;101072.89;1782317;80;21196;-76
2021/12/22 01:25:03;;;;;;;5.30;3.30;;;;;;;-9.63;66.70;101080.15;1784433;78;20940;-74
2021/12/22 01:27:34;;;;;;;10.63;5.40;;;;;;;-9.70;66.53;101078.25;1787071;78;21018;-75
2021/12/22 01:29:59;;;;;;;9.40;3.77;;;;;;;-9.77;66.75;101076.36;1786716;79;20904;-75
2021/12/22 01:32:26;;;;;;;9.65;5.03;;;;;;;-9.77;66.95;101081.43;1787073;80;20891;-75
2021/12/22 01:34:54;;;;;;;6.40;4.45;;;;;;;-9.78;66.98;101089.45;1787320;79;21062;-73
2021/12/22 01:37:21;;;;;;;10.75;5.62;;;;;;;-9.75;67.00;101083.61;1786801;79;20904;-76
2021/12/22 01:39:48;;;;;;;12.15;7.08;;;;;;;-9.72;67.13;101087.08;1787355;78;20873;-74
2021/12/22 01:42:14;;;;;;;15.75;7.58;;;;;;;-9.69;67.09;101088.84;1787044;79;20912;-73
2021/12/22 01:50:37;;;;;;;10.68;4.62;;;;;;;-9.65;66.98;101100.81;1785738;80;20884;-74
2021/12/22 01:53:25;;;;;;;5.95;4.17;;;;;;;-9.62;66.97;101101.78;1785401;80;20975;-76
2021/12/22 01:56:27;;;;;;;7.67;4.03;;;;;;;-9.63;66.87;101101.30;1785405;80;20960;-74
2021/12/22 01:58:57;;;;;;;4.30;3.45;;;;;;;-9.60;66.93;101102.69;1785527;80;20941;-75
2021/12/22 02:01:25;;;;;;;6.30;3.65;;;;;;;-9.61;66.63;101094.60;1773293;80;21124;-75
2021/12/22 02:03:52;;;;;;;6.58;3.77;;;;;;;-9.70;66.46;101090.53;1769911;81;20940;-76
2021/12/22 02:06:20;;;;;;;5.72;3.95;;;;;;;-9.73;66.61;101099.33;1769971;81;20889;-74
2021/12/22 02:08:46;;;;;;;7.72;4.60;;;;;;;-9.75;66.62;101099.69;1769976;81;21339;-74
2021/12/22 02:11:15;;;;;;;13.22;5.00;;;;;;;-9.75;66.99;101098.42;1770219;81;20980;-76
2021/12/22 02:13:48;;;;;;;8.30;4.95;;;;;;;-9.70;66.87;101102.36;1770209;81;21941;-75
2021/12/22 02:16:14;;;;;;;7.25;4.05;;;;;;;-9.65;67.03;101109.31;1768991;81;20945;-74
2021/12/22 02:18:50;;;;;;;5.05;4.33;;;;;;;-9.61;66.93;101111.09;1768404;81;20884;-75
2021/12/22 02:21:18;;;;;;;5.22;3.35;;;;;;;-9.60;66.69;101112.84;1768521;81;20857;-76
2021/12/22 02:23:45;;;;;;;5.15;3.70;;;;;;;-9.60;66.67;101113.25;1768359;81;21497;-74
2021/12/22 02:26:24;;;;;;;5.30;3.77;;;;;;;-9.58;66.56;101120.51;1768425;81;21141;-73
2021/12/22 02:28:45;;;;;;;5.60;4.22;;;;;;;-9.65;66.43;101116.92;1765047;81;21035;-76
2021/12/22 02:31:13;;;;;;;8.05;4.67;;;;;;;-9.73;66.40;101123.85;1768368;81;21066;-74
2021/12/22 02:33:40;;;;;;;8.38;5.28;;;;;;;-9.78;66.76;101127.52;1768233;80;20906;-75
2021/12/22 02:36:10;;;;;;;4.85;4.08;;;;;;;-9.76;67.20;101119.52;1768943;81;20849;-75
2021/12/22 02:38:40;;;;;;;7.92;3.87;;;;;;;-9.71;67.00;101125.61;1768418;81;21119;-75
2021/12/22 02:41:10;;;;;;;5.90;3.50;;;;;;;-9.71;66.99;101132.37;1768370;81;20995;-75
2021/12/22 02:43:45;;;;;;;6.53;4.08;;;;;;;-9.77;67.01;101133.45;1768836;80;20902;-76
2021/12/22 02:46:07;;;;;;;7.37;3.83;;;;;;;-9.79;67.42;101132.12;1768294;81;20897;-75
2021/12/22 02:48:34;;;;;;;5.22;3.67;;;;;;;-9.74;67.61;101134.80;1770969;81;20987;-74
2021/12/22 02:51:02;;;;;;;5.67;4.28;;;;;;;-9.67;67.58;101134.16;1771609;78;21106;-73
2021/12/22 02:53:41;;;;;;;6.30;3.27;;;;;;;-9.70;67.10;101135.34;1768573;81;20909;-75
2021/12/22 02:56:11;;;;;;;4.15;3.30;;;;;;;-9.80;66.97;101145.64;1765215;81;21466;-74
2021/12/22 03:03:58;;;;;;;5.40;3.55;;;;;;;-10.01;67.39;101143.27;1768411;81;22004;-77
2021/12/22 03:06:33;;;;;;;3.10;2.80;;;;;;;-9.98;67.17;101147.19;1767709;81;20909;-76
2021/12/22 03:08:55;;;;;;;3.15;2.22;;;;;;;-10.02;67.07;101152.97;1767215;80;20893;-76
2021/12/22 03:11:22;;;;;;;6.50;2.77;;;;;;;-10.09;66.68;101154.45;1768561;81;20912;-75
2021/12/22 03:13:49;;;;;;;4.80;3.25;;;;;;;-10.13;66.59;101154.30;1768617;80;20877;-75
2021/12/22 03:16:19;;;;;;;3.17;2.22;;;;;;;-10.14;66.44;101157.22;1768244;80;21222;-74
2021/12/22 03:18:46;;;;;;;4.40;3.12;;;;;;;-10.18;66.31;101158.34;1768325;80;20912;-76
2021/12/22 03:21:21;;;;;;;4.12;2.55;;;;;;;-10.25;66.46;101156.89;1768526;80;20940;-76
2021/12/22 03:23:52;;;;;;;2.50;2.30;;;;;;;-10.27;66.14;101164.85;1768632;81;21474;-76
2021/12/22 03:26:20;;;;;;;3.17;2.30;;;;;;;-10.32;66.13;101168.06;1768391;81;20861;-76
2021/12/22 03:28:49;;;;;;;4.83;2.15;;;;;;;-10.35;66.05;101171.36;1768205;81;20892;-75
2021/12/22 03:31:16;;;;;;;3.17;2.22;;;;;;;-10.35;65.98;101178.97;1768379;80;20893;-75
2021/12/22 03:33:43;;;;;;;2.15;1.95;;;;;;;-10.38;65.86;101181.78;1768916;80;20984;-76
2021/12/22 03:36:10;;;;;;;5.75;3.15;;;;;;;-10.40;65.70;101180.49;1768268;80;20944;-77
2021/12/22 03:38:37;;;;;;;5.67;3.77;;;;;;;-10.45;65.81;101177.80;1768616;81;20885;-76
2021/12/22 03:41:06;;;;;;;6.58;2.27;;;;;;;-10.41;65.91;101182.55;1768352;80;21127;-77
2021/12/22 03:43:33;;;;;;;3.92;3.50;;;;;;;-10.42;65.41;101188.45;1768117;81;20991;-76
2021/12/22 03:45:59;;;;;;;3.80;2.40;;;;;;;-10.45;65.17;101181.98;1768420;81;21359;-75
2021/12/22 03:48:28;;;;;;;2.85;2.10;;;;;;;-10.46;65.20;101192.53;1768244;81;20932;-76
2021/12/22 03:50:55;;;;;;;3.60;1.90;;;;;;;-10.40;65.11;101200.77;1768213;81;20877;-77
2021/12/22 03:53:22;;;;;;;3.02;2.62;;;;;;;-10.37;65.07;101193.67;1768256;81;21550;-76
2021/12/22 03:55:49;;;;;;;4.45;2.75;;;;;;;-10.35;64.89;101192.05;1768271;81;20849;-76
2021/12/22 03:58:15;;;;;;;4.90;2.98;;;;;;;-10.35;64.75;101206.85;1768179;80;21378;-76
2021/12/22 04:00:42;;;;;;;6.15;3.60;;;;;;;-10.34;64.79;101211.51;1769766;80;20979;-74
2021/12/22 04:03:17;;;;;;;4.85;2.52;;;;;;;-10.33;64.80;101210.72;1775339;80;20960;-74
2021/12/22 04:05:40;;;;;;;3.22;2.20;;;;;;;-10.34;64.48;101207.70;1737560;82;21173;-76
2021/12/22 04:08:07;;;;;;;3.08;2.25;;;;;;;-10.37;64.52;101211.00;1775323;80;20869;-76
2021/12/22 04:10:35;;;;;;;6.90;3.65;;;;;;;-10.38;64.35;101210.56;1775366;80;20936;-74
2021/12/22 04:13:02;;;;;;;10.20;4.10;;;;;;;-10.44;64.46;101206.13;1775471;80;20944;-75
2021/12/22 04:15:29;;;;;;;18.62;8.85;;;;;;;-10.45;64.35;101211.13;1775349;80;21362;-75
2021/12/22 04:17:57;;;;;;;6.55;2.92;;;;;;;-10.50;64.52;101211.39;1775585;80;21090;-74
2021/12/22 04:20:23;;;;;;;4.97;2.20;;;;;;;-10.50;64.72;101213.92;1775313;80;20940;-75
2021/12/22 04:22:50;;;;;;;2.37;1.80;;;;;;;-10.49;64.59;101211.86;1775542;80;20900;-75
2021/12/22 04:25:20;;;;;;;4.15;2.60;;;;;;;-10.51;64.55;101216.02;1775397;80;20896;-76
2021/12/22 04:27:47;;;;;;;5.22;3.50;;;;;;;-10.53;64.58;101224.81;1775061;80;20904;-75
2021/12/22 04:30:14;;;;;;;5.62;2.70;;;;;;;-10.51;64.80;101222.34;1775271;80;21796;-76
2021/12/22 04:32:41;;;;;;;3.33;2.45;;;;;;;-10.48;64.93;101224.56;1775492;80;21037;-74
2021/12/22 04:35:08;;;;;;;18.90;6.08;;;;;;;-10.45;64.94;101227.61;1775177;80;20860;-75
2021/12/22 04:37:35;;;;;;;19.25;7.03;;;;;;;-10.39;64.91;101237.11;1775317;80;21487;-75
2021/12/22 04:40:04;;;;;;;13.75;5.42;;;;;;;-10.36;65.07;101229.60;1775221;80;20947;-74
2021/12/22 04:42:33;;;;;;;12.05;4.42;;;;;;;-10.33;64.91;101234.39;1775237;80;21490;-74
2021/12/22 04:45:03;;;;;;;7.10;3.75;;;;;;;-10.26;65.05;101238.81;1775284;80;21366;-74
2021/12/22 04:47:31;;;;;;;7.80;4.45;;;;;;;-10.19;64.71;101239.89;1775467;80;21359;-74
2021/12/22 04:49:58;;;;;;;8.90;3.42;;;;;;;-10.14;64.76;101242.58;1775182;80;21053;-75
2021/12/22 04:52:27;;;;;;;5.33;3.30;;;;;;;-10.07;64.59;101250.84;1775310;80;20923;-74
2021/12/22 04:55:04;;;;;;;8.73;4.12;;;;;;;-10.02;64.73;101252.75;1775499;80;21145;-75
2021/12/22 04:57:34;;;;;;;11.30;5.83;;;;;;;-9.91;64.80;101252.25;1775235;80;21058;-75
2021/12/22 05:00:04;;;;;;;15.65;8.30;;;;;;;-9.80;64.23;101249.66;1775424;80;20884;-75
2021/12/22 05:02:31;;;;;;;19.50;8.08;;;;;;;-9.79;63.98;101252.64;1782165;80;20876;-74
2021/12/22 05:04:58;;;;;;;11.70;6.40;;;;;;;-9.78;63.71;101259.46;1783635;80;21298;-76
2021/12/22 05:07:27;;;;;;;11.35;7.03;;;;;;;-9.80;63.65;101257.28;1783501;80;20872;-75
2021/12/22 05:09:53;;;;;;;12.05;5.83;;;;;;;-9.81;63.52;101256.80;1783760;80;21437;-74
2021/12/22 05:12:20;;;;;;;11.43;5.70;;;;;;;-9.83;63.32;101253.35;1783834;80;20892;-73
2021/12/22 05:14:50;;;;;;;9.20;4.90;;;;;;;-9.88;63.33;101266.30;1783851;80;20897;-76
2021/12/22 05:17:39;;;;;;;9.75;5.83;;;;;;;-9.91;63.30;101264.53;1783860;80;20927;-77
2021/12/22 05:19:51;;;;;;;15.83;7.35;;;;;;;-9.93;63.25;101275.44;1779338;80;21129;-72
2021/12/22 05:22:18;;;;;;;14.05;7.37;;;;;;;-9.94;63.17;101276.23;1783877;80;20928;-75
2021/12/22 05:24:46;;;;;;;12.47;7.65;;;;;;;-9.95;63.19;101279.59;1783808;80;20928;-78
2021/12/22 05:27:13;;;;;;;21.33;8.83;;;;;;;-9.98;63.16;101284.16;1784186;80;20939;-76
2021/12/22 05:29:41;;;;;;;20.82;9.10;;;;;;;-9.96;63.05;101284.19;1783899;80;20923;-76
2021/12/22 05:32:07;;;;;;;19.60;9.80;;;;;;;-9.95;63.00;101288.47;1783649;80;21091;-76
2021/12/22 05:34:35;;;;;;;26.07;8.75;;;;;;;-9.92;62.83;101291.10;1783677;80;21003;-76
2021/12/22 05:37:02;;;;;;;13.45;7.03;;;;;;;-9.91;62.68;101290.31;1783751;80;20971;-75
2021/12/22 05:39:29;;;;;;;17.00;9.05;;;;;;;-9.92;62.56;101296.17;1783830;80;20880;-79
2021/12/22 05:41:59;;;;;;;10.00;6.35;;;;;;;-9.94;62.39;101304.98;1783912;80;21437;-73
2021/12/22 05:44:28;;;;;;;14.47;7.58;;;;;;;-9.97;62.23;101309.11;1784896;80;21103;-76
2021/12/22 05:46:55;;;;;;;19.05;8.15;;;;;;;-10.02;62.08;101308.96;1783352;80;20967;-73
2021/12/22 05:49:21;;;;;;;16.82;8.43;;;;;;;-10.05;61.96;101314.80;1783920;80;20979;-75
2021/12/22 05:51:48;;;;;;;20.43;8.45;;;;;;;-10.08;61.72;101318.47;1783583;80;20869;-75
2021/12/22 05:54:15;;;;;;;17.57;9.73;;;;;;;-10.14;61.66;101322.05;1783529;80;20880;-74
2021/12/22 05:56:43;;;;;;;11.10;7.65;;;;;;;-10.17;61.64;101322.37;1783563;80;21425;-75
2021/12/22 05:59:09;;;;;;;12.82;6.65;;;;;;;-10.23;61.55;101313.71;1783858;80;20912;-73
2021/12/22 06:01:38;;;;;;;12.20;6.12;;;;;;;-10.26;61.61;101317.42;1780746;80;20936;-73
2021/12/22 06:04:09;;;;;;;12.10;5.45;;;;;;;-10.26;61.75;101322.90;1777616;80;20869;-74
2021/12/22 06:06:38;;;;;;;13.62;6.72;;;;;;;-10.24;61.78;101320.02;1776400;80;20834;-75
2021/12/22 06:09:05;;;;;;;10.65;6.72;;;;;;;-10.22;61.80;101335.73;1778145;80;22121;-73
2021/12/22 06:11:37;;;;;;;16.00;7.00;;;;;;;-10.22;61.85;101331.94;1778290;80;20955;-74
2021/12/22 06:14:07;;;;;;;12.65;7.10;;;;;;;-10.22;61.95;101336.16;1776007;80;21361;-75
2021/12/22 06:16:34;;;;;;;12.07;6.00;;;;;;;-10.22;62.12;101328.55;1775969;80;20936;-74
2021/12/22 06:19:04;;;;;;;11.85;5.70;;;;;;;-10.21;62.22;101330.25;1775709;80;20992;-76
2021/12/22 06:21:31;;;;;;;12.50;5.72;;;;;;;-10.18;62.36;101334.19;1738609;82;21206;-73
2021/12/22 06:23:58;;;;;;;7.87;4.87;;;;;;;-10.14;62.38;101332.61;1775452;80;20924;-72
2021/12/22 06:26:25;;;;;;;10.00;5.58;;;;;;;-10.13;62.37;101333.94;1775256;80;20900;-72
2021/12/22 06:28:52;;;;;;;7.78;4.80;;;;;;;-10.11;62.43;101340.34;1775291;80;20956;-73
2021/12/22 06:31:21;;;;;;;8.85;5.12;;;;;;;-10.06;62.55;101340.09;1775526;80;21331;-73
2021/12/22 06:33:52;;;;;;;7.22;4.80;;;;;;;-10.03;62.43;101337.23;1775503;80;21897;-75
2021/12/22 06:36:19;;;;;;;16.97;8.88;;;;;;;-10.02;62.38;101345.33;1753026;80;21326;-75
2021/12/22 06:38:46;;;;;;;13.03;5.83;;;;;;;-10.01;62.48;101351.25;1775504;80;21362;-75
2021/12/22 06:41:13;;;;;;;12.30;6.00;;;;;;;-10.02;62.28;101356.73;1775394;80;20940;-75
2021/12/22 06:43:40;;;;;;;10.05;6.33;;;;;;;-10.08;62.40;101363.27;1775660;80;21406;-76
2021/12/22 06:46:06;;;;;;;8.00;5.70;;;;;;;-10.11;62.40;101364.44;1775316;80;21817;-75
2021/12/22 06:48:34;;;;;;;15.48;6.85;;;;;;;-10.13;62.68;101367.32;1775417;80;20983;-75
2021/12/22 06:51:01;;;;;;;12.35;6.03;;;;;;;-10.10;62.92;101369.55;1775388;80;20894;-76
2021/12/22 06:53:31;;;;;;;13.53;6.60;;;;;;;-10.12;63.00;101364.81;1775647;80;20952;-77
2021/12/22 06:55:57;;;;;;;7.33;5.50;;;;;;;-10.11;63.10;101370.78;1738006;82;20924;-74
2021/12/22 06:58:23;;;;;;;12.47;7.35;;;;;;;-10.10;63.27;101377.56;1775244;80;21058;-77
2021/12/22 07:00:50;;;;;;;7.70;5.50;;;;;;;-10.09;63.26;101381.43;1775270;80;21339;-76
2021/12/22 07:03:18;;;;;;;11.80;5.95;;;;;;;-10.06;63.43;101371.80;1775452;80;21307;-80
2021/12/22 07:05:44;;;;;;;12.75;6.83;;;;;;;-10.03;63.38;101374.02;1775409;80;20933;-75
2021/12/22 07:08:11;;;;;;;17.37;8.08;;;;;;;-10.01;63.49;101376.20;1775547;80;20972;-76
2021/12/22 07:10:38;;;;;;;12.73;8.03;;;;;;;-10.00;63.54;101370.76;1775525;80;21166;-76
2021/12/22 07:13:07;;;;;;;17.67;7.08;;;;;;;-10.01;63.56;101374.94;1775218;80;20889;-75
2021/12/22 07:15:34;;;;;;;15.58;8.48;;;;;;;-9.99;63.52;101378.81;1775378;80;21405;-76
2021/12/22 07:18:02;;;;;;;14.90;8.50;;;;;;;-10.00;63.59;101382.17;1775469;80;20939;-76
2021/12/22 07:20:29;;;;;;;10.15;6.90;;;;;;;-9.96;63.52;101377.64;1775346;80;21405;-74
2021/12/22 07:22:56;;;;;;;11.83;8.00;;;;;;;-9.95;63.49;101376.84;1775408;80;21520;-75
2021/12/22 07:25:24;;;;;;;23.92;10.58;;;;;;;-9.93;63.38;101377.77;1775319;80;20940;-75
2021/12/22 07:27:51;;;;;;;16.77;8.63;;;;;;;-9.88;63.34;101385.13;1775408;80;21003;-76
2021/12/22 07:30:18;;;;;;;17.65;8.33;;;;;;;-9.85;63.36;101381.45;1775315;80;20912;-75
2021/12/22 07:32:46;;;;;;;13.05;7.30;;;;;;;-9.80;63.44;101386.27;1775439;80;20932;-76
2021/12/22 07:35:40;;;;;;;17.57;8.13;;;;;;;-9.76;63.35;101385.95;1775537;80;21098;-76
2021/12/22 07:38:29;;;;;;;25.52;10.20;;;;;;;-9.72;63.50;101390.33;1775518;80;20906;-77
2021/12/22 07:40:59;;;;;;;11.22;7.75;;;;;;;-9.63;63.49;101390.64;1775468;80;21490;-76
2021/12/22 07:43:27;;;;;;;18.15;9.05;;;;;;;-9.56;63.42;101387.05;1775326;80;20893;-76
2021/12/22 07:45:54;;;;;;;22.52;13.88;;;;;;;-9.50;63.38;101388.12;1738469;82;21512;-76
2021/12/22 07:48:21;;;;;;;18.35;10.75;;;;;;;-9.44;63.25;101382.41;1775470;80;21136;-76
2021/12/22 07:50:47;;;;;;;17.15;9.40;;;;;;;-9.40;63.25;101388.05;1775668;80;20923;-78
2021/12/22 07:53:14;;;;;;;16.42;8.40;;;;;;;-9.35;63.33;101391.59;1775439;80;20932;-77
2021/12/22 07:55:41;;;;;;;15.28;9.35;;;;;;;-9.27;63.43;101390.56;1775424;80;21003;-76
2021/12/22 07:58:09;;;;;;;15.80;8.50;;;;;;;-9.20;63.44;101394.65;1775453;80;20825;-76
2021/12/22 08:00:36;;;;;;;21.42;9.28;;;;;;;-9.13;63.43;101394.44;1775713;79;21402;-77
2021/12/22 08:03:03;;;;;;;20.23;11.75;;;;;;;-9.06;63.62;101387.88;1780824;79;21380;-76
2021/12/22 08:05:33;;;;;;;15.48;9.80;;;;;;;-8.98;63.48;101394.94;1783655;79;20990;-76
2021/12/22 08:08:00;;;;;;;16.93;8.50;;;;;;;-8.92;63.20;101390.86;1783721;80;21018;-78
2021/12/22 08:10:28;;;;;;;15.72;8.70;;;;;;;-8.85;63.01;101391.08;1783663;80;20908;-76
2021/12/22 08:12:56;;;;;;;20.12;11.20;;;;;;;-8.81;62.96;101391.64;1783649;80;21509;-79
2021/12/22 08:15:23;;;;;;;18.57;8.55;;;;;;;-8.72;63.05;101394.88;1783963;80;21530;-76
2021/12/22 08:17:53;;;;;;;16.77;9.58;;;;;;;-8.65;62.80;101393.39;1783703;80;21558;-76
2021/12/22 08:20:20;;;;;;;12.85;7.12;;;;;;;-8.58;62.64;101396.56;1783832;79;20915;-77
2021/12/22 08:22:47;;;;;;;20.02;10.03;;;;;;;-8.55;62.47;101391.18;1783768;80;21064;-76
2021/12/22 08:25:14;;;;;;;17.07;9.10;;;;;;;-8.51;62.26;101393.42;1783919;79;21417;-77
2021/12/22 08:27:41;;;;;;;22.37;9.23;;;;;;;-8.44;62.18;101388.11;1783591;80;20912;-78
2021/12/22 08:30:09;;;;;;;14.25;8.50;;;;;;;-8.38;62.14;101384.03;1783710;79;21607;-76
2021/12/22 08:32:36;;;;;;;18.80;10.25;;;;;;;-8.30;62.23;101386.78;1783355;79;21456;-77
2021/12/22 08:35:06;;;;;;;19.73;9.35;;;;;;;-8.24;61.98;101384.42;1784024;79;20915;-77
2021/12/22 08:40:21;;;;;;;16.57;9.78;;;;;;;-8.13;61.74;101382.20;1784085;79;20856;-76
2021/12/22 08:42:47;;;;;;;18.98;10.30;;;;;;;-8.06;61.86;101381.55;1784374;80;20951;-79
2021/12/22 08:45:17;;;;;;;20.12;9.93;;;;;;;-7.97;62.03;101374.16;1783866;80;20970;-78
2021/12/22 08:47:45;;;;;;;22.40;10.18;;;;;;;-7.89;61.95;101376.94;1783734;80;20927;-77
2021/12/22 08:50:13;;;;;;;20.45;10.35;;;;;;;-7.82;61.76;101376.27;1783891;80;21114;-77
2021/12/22 08:52:40;;;;;;;17.37;9.83;;;;;;;-7.74;62.04;101373.92;1783561;80;20844;-76
2021/12/22 08:55:08;;;;;;;21.25;10.25;;;;;;;-7.62;61.84;101367.04;1783885;80;20923;-75
2021/12/22 08:57:36;;;;;;;17.40;10.25;;;;;;;-7.48;61.82;101373.34;1783589;80;20904;-76
2021/12/22 09:00:09;;;;;;;13.38;8.63;;;;;;;-7.28;61.86;101367.89;1783897;79;20864;-77
2021/12/22 09:02:38;;;;;;;15.05;7.50;;;;;;;-7.06;61.75;101367.59;1783459;80;21517;-76
2021/12/22 09:05:06;;;;;;;15.32;8.73;;;;;;;-6.88;61.13;101369.29;1784233;80;20875;-75
2021/12/22 09:07:33;;;;;;;17.05;8.95;;;;;;;-6.70;60.53;101377.77;1783757;80;21397;-77
2021/12/22 09:10:00;;;;;;;18.12;9.68;;;;;;;-6.58;60.50;101370.83;1783433;79;20891;-75
2021/12/22 09:12:29;;;;;;;19.17;9.35;;;;;;;-6.44;60.25;101372.83;1783745;80;21385;-75
2021/12/22 09:14:57;;;;;;;17.30;10.20;;;;;;;-6.33;60.05;101382.42;1783874;79;21208;-74
2021/12/22 09:17:24;;;;;;;11.48;7.37;;;;;;;-6.24;59.74;101371.97;1783519;79;20923;-76
2021/12/22 09:19:53;;;;;;;9.33;6.37;;;;;;;-6.25;58.54;101369.81;1783651;80;20876;-75
2021/12/22 09:22:20;;;;;;;12.68;7.10;;;;;;;-6.35;58.51;101376.84;1783717;80;20960;-76
2021/12/22 09:24:48;;;;;;;8.78;5.70;;;;;;;-6.47;58.10;101373.20;1784887;79;20856;-77
2021/12/22 09:27:14;;;;;;;7.58;4.92;;;;;;;-6.64;58.20;101371.96;1785143;80;21493;-75
2021/12/22 09:29:43;;;;;;;8.15;3.80;;;;;;;-6.72;58.39;101373.05;1786771;79;20919;-75
2021/12/22 09:32:14;;;;;;;11.20;6.08;;;;;;;-6.77;58.47;101375.06;1786084;79;20876;-74
2021/12/22 09:34:43;;;;;;;9.48;5.97;;;;;;;-6.88;58.75;101375.66;1784733;80;20883;-73
2021/12/22 09:37:09;;;;;;;7.75;4.58;;;;;;;-6.98;58.54;101369.92;1783723;80;20911;-74
2021/12/22 09:39:37;;;;;;;10.78;4.83;;;;;;;-7.05;58.81;101373.55;1783630;79;21092;-73
2021/12/22 09:42:05;;;;;;;11.18;5.65;;;;;;;-7.16;58.93;101375.44;1784001;79;20896;-75
2021/12/22 09:44:37;;;;;;;15.18;7.33;;;;;;;-7.27;59.38;101379.80;1783620;79;20943;-74
2021/12/22 09:47:02;;;;;;;28.30;12.40;;;;;;;-7.32;59.91;101376.72;1753679;80;21476;-74
2021/12/22 09:52:18;;;;;;;22.67;9.18;;;;;;;-7.22;59.86;101371.45;1783581;80;21960;-75
2021/12/22 09:54:47;;;;;;;9.35;5.60;;;;;;;-7.17;60.02;101370.30;1784038;80;20988;-77
2021/12/22 09:57:15;;;;;;;9.98;5.75;;;;;;;-7.14;60.11;101369.94;1783361;80;20963;-76
2021/12/22 09:59:45;;;;;;;6.85;4.60;;;;;;;-7.09;60.16;101358.19;1783837;80;20963;-75
2021/12/22 10:02:13;;;;;;;7.22;4.33;;;;;;;-6.95;60.23;101361.48;1782923;80;20966;-75
2021/12/22 10:04:41;;;;;;;5.70;3.77;;;;;;;-6.81;60.25;101372.84;1775310;79;21218;-75
2021/12/22 10:07:15;;;;;;;10.05;4.95;;;;;;;-6.67;59.84;101367.66;1775261;80;20857;-77
2021/12/22 10:09:44;;;;;;;7.10;4.20;;;;;;;-6.54;59.33;101371.73;1774663;80;21382;-78
2021/12/22 10:12:17;;;;;;;7.35;4.42;;;;;;;-6.49;58.94;101365.92;1775231;79;20885;-77
2021/12/22 10:14:56;;;;;;;8.50;4.78;;;;;;;-6.49;58.95;101363.77;1775279;80;20970;-75
2021/12/22 10:18:16;;;;;;;13.75;7.50;;;;;;;-6.37;58.81;101360.22;1854580;77;22606;-74
2021/12/22 10:20:44;;;;;;;9.40;5.92;;;;;;;-6.31;59.06;101355.67;1822305;78;20883;-74
2021/12/22 10:23:31;;;;;;;7.05;4.90;;;;;;;-6.10;59.28;101357.36;1822227;78;21142;-75
2021/12/22 10:26:07;;;;;;;19.45;10.28;;;;;;;-5.85;59.03;101348.86;1822054;78;20954;-76
2021/12/22 10:28:51;;;;;;;20.05;9.10;;;;;;;-5.64;58.73;101342.88;1822190;78;20923;-75
2021/12/22 10:31:23;;;;;;;21.55;8.78;;;;;;;-5.44;57.94;101339.83;1822455;78;21475;-76
2021/12/22 10:33:50;;;;;;;25.95;13.83;;;;;;;-5.33;57.41;101340.02;1791049;78;20974;-74
2021/12/22 10:36:20;;;;;;;22.70;9.58;;;;;;;-5.23;57.50;101341.44;1822146;78;22171;-75
2021/12/22 10:38:53;;;;;;;16.30;7.35;;;;;;;-5.08;57.62;101349.78;1821774;78;20872;-74
2021/12/22 10:41:22;;;;;;;8.58;5.00;;;;;;;-4.92;57.45;101350.02;1821936;78;20965;-74
2021/12/22 10:43:51;;;;;;;10.38;5.10;;;;;;;-4.85;56.83;101342.88;1817255;78;20982;-73
2021/12/22 10:46:31;;;;;;;8.10;4.58;;;;;;;-4.84;55.93;101335.23;1822149;78;21243;-75
2021/12/22 10:49:17;;;;;;;6.15;4.33;;;;;;;-4.98;55.61;101342.25;1822220;78;21306;-76
2021/12/22 10:52:01;;;;;;;4.70;4.05;;;;;;;-5.11;55.87;101347.58;1822170;78;20875;-75
2021/12/22 10:54:37;;;;;;;8.20;4.25;;;;;;;-5.18;55.83;101349.18;1820005;78;21427;-76
2021/12/22 10:57:08;;;;;;;6.75;3.80;;;;;;;-5.24;56.23;101342.71;1821809;78;20935;-76
2021/12/22 10:59:47;;;;;;;4.78;3.37;;;;;;;-5.22;56.31;101346.16;1823262;78;21377;-75
2021/12/22 11:02:26;;;;;;;4.92;3.40;;;;;;;-5.21;56.37;101343.61;1823647;78;21113;-75
2021/12/22 11:04:52;;;;;;;5.50;3.60;;;;;;;-5.30;56.30;101348.99;1823582;78;20903;-76
2021/12/22 11:07:28;;;;;;;5.60;3.62;;;;;;;-5.34;56.62;101356.16;1824062;78;20932;-74
2021/12/22 11:09:52;;;;;;;5.62;3.15;;;;;;;-5.42;57.11;101359.45;1823323;78;20920;-78
2021/12/22 11:12:38;;;;;;;6.03;2.80;;;;;;;-5.46;57.66;101361.52;1823735;78;20990;-77
2021/12/22 11:15:07;;;;;;;5.47;4.75;;;;;;;-5.50;57.86;101366.12;1821814;78;21152;-74
2021/12/22 11:17:38;;;;;;;7.22;4.42;;;;;;;-5.55;58.41;101360.50;1802347;78;20966;-75
2021/12/22 11:20:06;;;;;;;10.28;5.80;;;;;;;-5.54;58.80;101367.31;1797460;77;21393;-78
2021/12/22 11:22:53;;;;;;;16.67;8.98;;;;;;;-5.62;59.35;101364.64;1797458;78;20930;-76
2021/12/22 11:25:16;;;;;;;12.95;7.00;;;;;;;-5.74;60.04;101369.08;1797068;78;20866;-78
2021/12/22 11:27:43;;;;;;;14.78;8.15;;;;;;;-5.79;60.93;101370.70;1797839;79;21137;-79
2021/12/22 11:30:12;;;;;;;10.15;6.47;;;;;;;-5.79;61.55;101366.02;1798012;77;20954;-76
2021/12/22 11:32:39;;;;;;;11.08;5.03;;;;;;;-5.78;61.84;101371.16;1797852;78;20927;-80
2021/12/22 11:35:11;;;;;;;10.15;6.50;;;;;;;-5.79;61.98;101375.80;1797744;77;21380;-78
2021/12/22 11:37:39;;;;;;;7.65;5.35;;;;;;;-5.83;62.48;101374.02;1797675;77;21037;-78
2021/12/22 11:40:09;;;;;;;6.05;3.92;;;;;;;-5.85;63.08;101382.95;1797383;79;21129;-77
2021/12/22 11:42:40;;;;;;;5.85;4.17;;;;;;;-5.87;63.26;101384.61;1797241;79;20867;-77